createdAt,value
2018-02-19T00:04:33.459Z,23.75
2018-02-19T00:07:02.562Z,24.25
2018-02-19T00:09:31.091Z,23.60
2018-02-19T00:11:59.865Z,23.27
2018-02-19T00:14:28.808Z,23.85
2018-02-19T00:16:57.793Z,19.35
2018-02-19T00:19:26.211Z,23.80
2018-02-19T00:21:55.499Z,22.35
2018-02-19T00:24:24.777Z,25.10
2018-02-19T00:44:11.074Z,21.60
2018-02-19T00:46:39.922Z,20.52
2018-02-19T00:49:07.804Z,20.42
2018-02-19T00:51:36.973Z,20.67
2018-02-19T00:54:05.938Z,22.35
2018-02-19T00:56:34.817Z,20.15
2018-02-19T00:59:04.027Z,21.50
2018-02-19T01:01:32.581Z,21.15
2018-02-19T01:04:01.546Z,20.80
2018-02-19T01:23:47.081Z,21.92
2018-02-19T01:26:18.048Z,20.15
2018-02-19T01:28:46.390Z,19.25
2018-02-19T01:31:15.936Z,20.15
2018-02-19T01:33:44.835Z,20.12
2018-02-19T01:36:13.383Z,20.55
2018-02-19T01:38:42.450Z,22.27
2018-02-19T01:41:10.924Z,20.27
2018-02-19T01:43:40.900Z,21.62
2018-02-19T02:03:26.946Z,20.10
2018-02-19T02:05:56.544Z,19.52
2018-02-19T02:08:25.849Z,19.12
2018-02-19T02:10:54.323Z,20.80
2018-02-19T02:13:23.639Z,21.58
2018-02-19T02:15:53.304Z,20.65
2018-02-19T02:18:23.345Z,20.80
2018-02-19T02:20:52.623Z,21.05
2018-02-19T02:44:09.268Z,22.77
2018-02-19T02:46:37.618Z,22.27
2018-02-19T02:49:07.168Z,20.52
2018-02-19T02:51:36.096Z,19.73
2018-02-19T02:54:05.147Z,20.98
2018-02-19T02:56:34.231Z,19.45
2018-02-19T02:59:03.816Z,20.30
2018-02-19T03:01:32.422Z,21.33
2018-02-19T03:04:02.117Z,21.30
2018-02-19T03:23:47.537Z,20.65
2018-02-19T03:26:16.262Z,19.67
2018-02-19T03:28:45.226Z,21.20
2018-02-19T03:31:15.063Z,18.10
2018-02-19T03:33:43.126Z,20.33
2018-02-19T03:36:11.157Z,21.45
2018-02-19T03:38:39.904Z,20.45
2018-02-19T03:41:08.406Z,19.30
2018-02-19T03:43:36.545Z,21.10
2018-02-19T04:03:23.084Z,21.50
2018-02-19T04:05:52.044Z,20.80
2018-02-19T04:08:21.368Z,20.00
2018-02-19T04:10:49.845Z,19.98
2018-02-19T04:13:18.530Z,19.65
2018-02-19T04:15:47.383Z,21.17
2018-02-19T04:18:17.100Z,19.45
2018-02-19T04:20:45.301Z,20.52
2018-02-19T04:23:14.060Z,21.08
2018-02-19T04:42:58.722Z,18.52
2018-02-19T04:45:27.857Z,20.58
2018-02-19T04:47:56.036Z,20.23
2018-02-19T04:50:24.784Z,20.60
2018-02-19T04:52:53.760Z,21.80
2018-02-19T04:55:22.237Z,18.98
2018-02-19T04:57:51.354Z,20.17
2018-02-19T05:00:21.008Z,20.90
2018-02-19T05:02:50.644Z,22.02
2018-02-19T05:22:37.521Z,19.70
2018-02-19T05:25:07.659Z,23.95
2018-02-19T05:27:37.168Z,22.05
2018-02-19T05:30:06.705Z,21.08
2018-02-19T05:32:36.295Z,22.08
2018-02-19T05:35:05.501Z,22.62
2018-02-19T05:37:34.871Z,23.73
2018-02-19T05:40:03.225Z,20.80
2018-02-19T05:42:31.608Z,22.40
2018-02-19T06:02:17.539Z,18.85
2018-02-19T06:04:46.924Z,20.80
2018-02-19T06:07:16.448Z,21.30
2018-02-19T06:09:45.735Z,22.48
2018-02-19T06:12:14.391Z,23.08
2018-02-19T06:14:45.824Z,22.77
2018-02-19T06:17:15.435Z,22.35
2018-02-19T06:19:44.164Z,19.77
2018-02-19T06:22:12.931Z,21.20
2018-02-19T06:41:57.407Z,22.52
2018-02-19T06:44:25.851Z,24.85
2018-02-19T06:46:54.306Z,21.60
2018-02-19T06:49:23.015Z,25.67
2018-02-19T06:51:52.135Z,21.95
2018-02-19T06:54:21.750Z,24.48
2018-02-19T06:56:50.755Z,22.55
2018-02-19T06:59:19.898Z,23.25
2018-02-19T07:01:48.107Z,21.05
2018-02-19T07:21:32.004Z,23.12
2018-02-19T07:24:00.556Z,19.05
2018-02-19T07:26:29.644Z,22.05
2018-02-19T07:28:58.652Z,23.12
2018-02-19T07:31:27.568Z,22.20
2018-02-19T07:33:57.163Z,22.17
2018-02-19T07:36:25.779Z,23.12
2018-02-19T07:38:54.633Z,21.27
2018-02-19T07:41:23.737Z,23.05
2018-02-19T08:01:09.344Z,22.08
2018-02-19T08:03:38.207Z,22.92
2018-02-19T08:06:07.931Z,23.23
2018-02-19T08:08:36.634Z,23.12
2018-02-19T08:11:06.126Z,22.42
2018-02-19T08:13:35.014Z,14.18
2018-02-19T08:16:04.821Z,22.60
2018-02-19T08:18:34.122Z,21.42
2018-02-19T08:21:03.254Z,22.30
2018-02-19T08:40:50.559Z,23.33
2018-02-19T08:43:19.819Z,24.05
2018-02-19T08:45:48.923Z,25.05
2018-02-19T08:48:17.441Z,20.95
2018-02-19T08:50:46.600Z,23.65
2018-02-19T08:53:14.822Z,22.50
2018-02-19T08:55:44.202Z,23.30
2018-02-19T08:58:13.621Z,21.10
2018-02-19T09:00:41.885Z,21.05
2018-02-19T09:20:26.447Z,25.35
2018-02-19T09:22:55.936Z,23.45
2018-02-19T09:25:23.975Z,23.65
2018-02-19T09:27:52.147Z,24.00
2018-02-19T09:30:21.364Z,24.27
2018-02-19T09:32:51.355Z,25.25
2018-02-19T09:35:20.219Z,23.77
2018-02-19T09:37:48.911Z,25.15
2018-02-19T09:40:18.615Z,25.05
2018-02-19T10:00:02.427Z,22.45
2018-02-19T10:02:31.702Z,24.17
2018-02-19T10:05:00.054Z,27.10
2018-02-19T10:07:28.888Z,25.27
2018-02-19T10:09:57.767Z,23.65
2018-02-19T10:12:27.092Z,21.92
2018-02-19T10:14:55.838Z,23.90
2018-02-19T10:17:24.999Z,23.33
2018-02-19T10:19:54.504Z,22.52
2018-02-19T10:39:39.582Z,23.73
2018-02-19T10:42:08.864Z,24.27
2018-02-19T10:44:36.798Z,21.80
2018-02-19T10:47:05.163Z,23.38
2018-02-19T10:49:34.378Z,16.77
2018-02-19T10:52:04.058Z,21.45
2018-02-19T10:54:33.649Z,23.48
2018-02-19T10:57:02.062Z,21.67
2018-02-19T10:59:31.140Z,21.05
2018-02-19T11:19:16.486Z,23.35
2018-02-19T11:21:45.496Z,22.35
2018-02-19T11:24:14.631Z,23.83
2018-02-19T11:26:43.114Z,26.48
2018-02-19T11:29:11.503Z,24.30
2018-02-19T11:31:40.428Z,23.60
2018-02-19T11:34:10.870Z,23.80
2018-02-19T11:36:39.016Z,22.93
2018-02-19T11:39:07.496Z,22.30
2018-02-19T11:58:52.687Z,25.27
2018-02-19T12:01:21.607Z,21.90
2018-02-19T12:03:50.621Z,26.33
2018-02-19T12:06:18.685Z,25.63
2018-02-19T12:08:47.284Z,24.07
2018-02-19T12:11:15.543Z,28.55
2018-02-19T12:13:43.836Z,22.15
2018-02-19T12:16:14.006Z,24.53
2018-02-19T12:18:43.976Z,26.00
2018-02-19T12:38:29.711Z,22.13
2018-02-19T12:40:58.781Z,23.48
2018-02-19T12:43:28.476Z,18.67
2018-02-19T12:45:57.002Z,24.52
2018-02-19T12:48:25.742Z,24.17
2018-02-19T12:50:54.052Z,25.35
2018-02-19T12:53:22.571Z,23.87
2018-02-19T12:55:52.072Z,26.00
2018-02-19T12:58:21.021Z,25.85
2018-02-19T13:18:07.027Z,24.83
2018-02-19T13:20:35.510Z,22.90
2018-02-19T13:23:04.231Z,20.40
2018-02-19T13:25:34.010Z,23.30
2018-02-19T13:28:02.554Z,22.80
2018-02-19T13:30:30.925Z,26.80
2018-02-19T13:32:59.805Z,22.00
2018-02-19T13:35:28.851Z,25.50
2018-02-19T13:37:58.598Z,23.50
2018-02-19T13:57:42.402Z,25.42
2018-02-19T14:00:11.425Z,25.40
2018-02-19T14:02:39.678Z,23.50
2018-02-19T14:05:09.072Z,25.80
2018-02-19T14:07:37.585Z,23.77
2018-02-19T14:10:06.375Z,22.25
2018-02-19T14:12:35.420Z,29.48
2018-02-19T14:15:05.105Z,24.10
2018-02-19T14:17:34.618Z,25.35
2018-02-19T14:37:18.930Z,24.02
2018-02-19T14:39:47.904Z,24.70
2018-02-19T14:42:15.990Z,26.17
2018-02-19T14:44:44.447Z,22.83
2018-02-19T14:47:14.204Z,22.73
2018-02-19T14:49:43.254Z,23.20
2018-02-19T14:52:11.816Z,24.30
2018-02-19T14:54:40.324Z,22.48
2018-02-19T14:57:09.077Z,24.15
2018-02-19T15:16:54.861Z,24.70
2018-02-19T15:19:23.429Z,23.55
2018-02-19T15:21:53.036Z,24.52
2018-02-19T15:24:22.357Z,23.70
2018-02-19T15:26:50.829Z,24.30
2018-02-19T15:29:19.017Z,23.70
2018-02-19T15:31:47.400Z,21.70
2018-02-19T15:34:16.562Z,21.33
2018-02-19T15:36:44.950Z,25.30
2018-02-19T15:56:32.607Z,24.35
2018-02-19T15:59:02.119Z,23.83
2018-02-19T16:01:30.788Z,22.67
2018-02-19T16:03:59.889Z,24.25
2018-02-19T16:06:28.733Z,24.30
2018-02-19T16:08:57.580Z,23.20
2018-02-19T16:11:26.396Z,22.73
2018-02-19T16:13:56.046Z,25.48
2018-02-19T16:16:24.765Z,22.87
2018-02-19T16:36:11.409Z,24.20
2018-02-19T16:38:41.289Z,25.80
2018-02-19T16:41:09.503Z,26.37
2018-02-19T16:43:38.848Z,28.70
2018-02-19T16:46:07.356Z,26.27
2018-02-19T16:48:36.988Z,24.65
2018-02-19T16:51:06.012Z,27.58
2018-02-19T16:53:34.967Z,26.58
2018-02-19T16:56:03.657Z,24.95
2018-02-19T17:15:47.522Z,28.50
2018-02-19T17:18:16.253Z,25.40
2018-02-19T17:20:45.375Z,27.40
2018-02-19T17:23:13.659Z,29.33
2018-02-19T17:25:42.869Z,30.02
2018-02-19T17:28:11.043Z,28.58
2018-02-19T17:30:40.927Z,27.13
2018-02-19T17:33:10.569Z,29.50
2018-02-19T17:35:40.141Z,30.08
2018-02-19T17:55:24.935Z,28.20
2018-02-19T17:57:54.408Z,30.30
2018-02-19T18:00:23.354Z,29.37
2018-02-19T18:02:51.779Z,29.20
2018-02-19T18:05:21.606Z,30.27
2018-02-19T18:07:51.310Z,29.15
2018-02-19T18:10:20.320Z,29.70
2018-02-19T18:12:48.896Z,27.15
2018-02-19T18:15:17.750Z,27.40
2018-02-19T18:35:03.646Z,29.77
2018-02-19T18:37:32.482Z,28.08
2018-02-19T18:40:01.801Z,27.62
2018-02-19T18:42:32.400Z,26.27
2018-02-19T18:45:02.290Z,27.73
2018-02-19T18:47:31.757Z,28.20
2018-02-19T18:50:01.211Z,27.30
2018-02-19T18:52:30.923Z,30.33
2018-02-19T19:16:09.231Z,32.60
2018-02-19T19:18:38.296Z,31.75
2018-02-19T19:21:06.765Z,30.80
2018-02-19T19:23:35.032Z,27.00
2018-02-19T19:26:06.056Z,30.40
2018-02-19T19:28:34.539Z,30.33
2018-02-19T19:31:04.784Z,33.25
2018-02-19T19:33:33.602Z,31.83
2018-02-19T19:36:02.431Z,32.50
2018-02-19T19:55:48.154Z,35.00
2018-02-19T19:58:17.971Z,34.58
2018-02-19T20:00:46.681Z,33.45
2018-02-19T20:03:16.942Z,35.30
2018-02-19T20:05:45.599Z,34.78
2018-02-19T20:08:14.616Z,32.38
2018-02-19T20:10:44.106Z,34.45
2018-02-19T20:13:12.586Z,33.75
2018-02-19T20:15:41.820Z,32.65
2018-02-19T20:35:26.393Z,32.58
2018-02-19T20:37:55.836Z,32.22
2018-02-19T20:40:25.346Z,33.38
2018-02-19T20:42:53.486Z,32.38
2018-02-19T20:45:22.132Z,29.75
2018-02-19T20:47:50.681Z,33.25
2018-02-19T20:50:18.888Z,30.67
2018-02-19T20:52:47.558Z,31.00
2018-02-19T20:55:16.358Z,31.65
2018-02-19T21:15:01.763Z,32.15
2018-02-19T21:17:30.752Z,34.00
2018-02-19T21:20:00.222Z,36.08
2018-02-19T21:22:28.417Z,33.75
2018-02-19T21:24:57.905Z,32.38
2018-02-19T21:27:26.590Z,34.20
2018-02-19T21:29:56.381Z,34.50
2018-02-19T21:32:25.483Z,36.53
2018-02-19T21:34:53.708Z,33.42
2018-02-19T21:54:39.914Z,33.47
2018-02-19T21:57:07.924Z,34.88
2018-02-19T21:59:36.228Z,32.95
2018-02-19T22:02:04.687Z,33.25
2018-02-19T22:04:33.733Z,35.10
2018-02-19T22:07:02.166Z,34.28
2018-02-19T22:09:30.837Z,34.20
2018-02-19T22:11:59.001Z,32.92
2018-02-19T22:14:27.474Z,34.13
2018-02-19T22:34:14.107Z,33.10
2018-02-19T22:36:42.753Z,34.55
2018-02-19T22:39:12.002Z,35.58
2018-02-19T22:41:41.314Z,36.00
2018-02-19T22:44:09.962Z,32.65
2018-02-19T22:46:38.301Z,35.22
2018-02-19T22:49:06.983Z,34.63
2018-02-19T22:51:35.766Z,32.95
2018-02-19T22:54:04.946Z,31.12
2018-02-19T23:13:49.045Z,36.80
2018-02-19T23:16:19.084Z,33.83
2018-02-19T23:18:47.350Z,36.22
2018-02-19T23:21:16.288Z,34.55
2018-02-19T23:23:44.821Z,36.35
2018-02-19T23:26:14.298Z,36.80
2018-02-19T23:28:43.679Z,34.10
2018-02-19T23:31:12.838Z,34.90
2018-02-19T23:33:43.049Z,31.98
2018-02-19T23:53:27.390Z,35.08
2018-02-19T23:55:56.362Z,33.80
2018-02-19T23:58:24.948Z,36.05
